TimeEST,TemperatureF,Dew PointF,Humidity,Sea Level PressureIn,VisibilityMPH,Wind Direction,Wind SpeedMPH,Gust SpeedMPH,PrecipitationIn,Events,Conditions,WindDirDegrees,DateUTC
12:56 AM,30.0,18.0,61,29.93,10.0,Calm,Calm,-,N/A,,Clear,0,2012-12-24 05:56:00
1:56 AM,27.0,18.0,69,29.95,10.0,WSW,5.8,-,N/A,,Clear,250,2012-12-24 06:56:00
2:56 AM,27.0,19.0,72,29.97,10.0,West,5.8,-,N/A,,Clear,260,2012-12-24 07:56:00
3:56 AM,30.0,19.0,64,29.96,10.0,WNW,5.8,-,N/A,,Partly Cloudy,290,2012-12-24 08:56:00
4:56 AM,27.0,17.1,66,29.97,10.0,WSW,5.8,-,N/A,,Partly Cloudy,250,2012-12-24 09:56:00
5:56 AM,26.1,18.0,71,30.00,10.0,WSW,4.6,-,N/A,,Partly Cloudy,250,2012-12-24 10:56:00
6:56 AM,26.1,19.0,75,30.03,10.0,West,3.5,-,N/A,,Scattered Clouds,270,2012-12-24 11:56:00
7:56 AM,27.0,21.0,78,30.05,10.0,Calm,Calm,-,N/A,,Mostly Cloudy,0,2012-12-24 12:56:00
8:56 AM,36.0,24.1,62,30.07,10.0,West,4.6,-,N/A,,Mostly Cloudy,270,2012-12-24 13:56:00
9:56 AM,37.9,23.0,55,30.08,10.0,NW,5.8,-,N/A,,Mostly Cloudy,310,2012-12-24 14:56:00
10:56 AM,39.0,21.9,50,30.06,10.0,NNW,5.8,-,N/A,,Mostly Cloudy,330,2012-12-24 15:56:00
11:56 AM,39.9,21.9,49,30.05,10.0,Calm,Calm,-,N/A,,Mostly Cloudy,0,2012-12-24 16:56:00
12:56 PM,39.9,21.0,47,30.02,10.0,NE,6.9,-,N/A,,Overcast,40,2012-12-24 17:56:00
1:56 PM,39.0,21.0,49,30.04,10.0,Calm,Calm,-,N/A,,Overcast,0,2012-12-24 18:56:00
2:56 PM,39.0,21.0,49,30.04,10.0,NE,3.5,-,N/A,,Mostly Cloudy,40,2012-12-24 19:56:00
3:56 PM,37.9,23.0,55,30.04,10.0,South,3.5,-,N/A,,Mostly Cloudy,180,2012-12-24 20:56:00
4:56 PM,35.1,23.0,61,30.03,10.0,Calm,Calm,-,N/A,,Overcast,0,2012-12-24 21:56:00
5:56 PM,36.0,24.1,62,30.03,10.0,Calm,Calm,-,N/A,,Overcast,0,2012-12-24 22:56:00
6:56 PM,36.0,23.0,59,30.02,10.0,East,5.8,-,N/A,,Overcast,80,2012-12-24 23:56:00
7:56 PM,34.0,24.1,67,30.01,2.0,East,6.9,-,0.00,Snow,Light Snow,80,2012-12-25 00:56:00
8:56 PM,32.0,27.0,82,29.99,3.0,ENE,5.8,-,0.02,Snow,Light Snow,60,2012-12-25 01:56:00
9:47 PM,33.8,28.4,81,29.96,3.0,ENE,5.8,-,0.04,Rain,Light Rain,70,2012-12-25 02:47:00
9:56 PM,33.1,30.0,89,29.97,3.0,East,4.6,-,0.04,Rain,Light Rain,80,2012-12-25 02:56:00
10:50 PM,33.8,30.2,87,29.94,4.0,ENE,5.8,-,0.02,Rain,Light Rain,70,2012-12-25 03:50:00
10:56 PM,34.0,30.9,89,29.94,4.0,ENE,3.5,-,0.02,Rain,Light Rain,70,2012-12-25 03:56:00
11:56 PM,35.1,32.0,89,29.93,5.0,NE,6.9,-,0.00,,Overcast,40,2012-12-25 04:56:00